createdAt,value
2023-01-13T00:01:53.444Z,1.07
2023-01-13T00:04:25.764Z,0.83
2023-01-13T00:06:55.374Z,0.88
2023-01-13T00:09:25.093Z,1.17
2023-01-13T00:11:54.632Z,0.77
2023-01-13T00:14:26.404Z,1.20
2023-01-13T00:16:55.932Z,1.20
2023-01-13T00:19:28.121Z,1.13
2023-01-13T00:21:57.733Z,1.10
2023-01-13T00:24:27.653Z,1.40
2023-01-13T00:26:57.206Z,1.30
2023-01-13T00:29:26.792Z,1.43
2023-01-13T00:31:56.455Z,1.40
2023-01-13T00:34:28.708Z,1.50
2023-01-13T00:36:58.371Z,1.30
2023-01-13T00:39:27.966Z,1.10
2023-01-13T00:42:10.102Z,1.40
2023-01-13T00:44:39.763Z,1.13
2023-01-13T00:47:09.337Z,1.10
2023-01-13T00:49:41.503Z,1.00
2023-01-13T00:52:11.180Z,0.93
2023-01-13T00:54:40.989Z,0.80
2023-01-13T00:57:10.606Z,0.93
2023-01-13T00:59:40.128Z,0.70
2023-01-13T01:02:09.892Z,0.73
2023-01-13T01:04:42.272Z,0.80
2023-01-13T01:07:11.863Z,0.60
2023-01-13T01:09:41.453Z,0.90
2023-01-13T01:12:11.218Z,0.97
2023-01-13T01:14:40.864Z,0.70
2023-01-13T01:17:10.393Z,0.80
2023-01-13T01:19:42.559Z,0.70
2023-01-13T01:22:12.174Z,0.52
2023-01-13T01:24:41.724Z,0.60
2023-01-13T01:27:11.229Z,0.80
2023-01-13T01:29:40.753Z,0.67
2023-01-13T01:32:10.342Z,0.90
2023-01-13T01:34:42.509Z,0.80
2023-01-13T01:37:12.075Z,0.77
2023-01-13T01:39:41.675Z,0.87
2023-01-13T01:42:30.987Z,0.77
2023-01-13T01:45:04.268Z,0.80
2023-01-13T01:47:34.777Z,0.83
2023-01-13T01:50:07.759Z,0.70
2023-01-13T01:55:13.931Z,0.68
2023-01-13T01:57:49.434Z,0.67
2023-01-13T02:00:19.460Z,0.90
2023-01-13T02:02:53.069Z,0.70
2023-01-13T02:05:25.459Z,0.80
2023-01-13T02:07:58.971Z,0.90
2023-01-13T02:10:31.113Z,1.10
2023-01-13T02:13:02.236Z,0.80
2023-01-13T02:15:38.294Z,0.90
2023-01-13T02:18:28.693Z,1.10
2023-01-13T02:21:26.511Z,1.03
2023-01-13T02:24:37.006Z,0.90
2023-01-13T02:27:32.359Z,0.90
2023-01-13T02:30:34.555Z,1.23
2023-01-13T02:33:16.771Z,1.20
2023-01-13T02:35:53.465Z,0.90
2023-01-13T02:38:27.448Z,1.00
2023-01-13T02:41:20.045Z,1.10
2023-01-13T02:44:05.023Z,1.75
2023-01-13T02:46:42.637Z,1.40
2023-01-13T02:49:17.572Z,1.63
2023-01-13T02:51:50.250Z,1.40
2023-01-13T02:54:24.986Z,1.58
2023-01-13T02:56:57.546Z,1.37
2023-01-13T02:59:29.025Z,1.55
2023-01-13T03:02:03.526Z,1.53
2023-01-13T03:04:49.731Z,1.43
2023-01-13T03:07:57.991Z,1.67
2023-01-13T03:10:38.473Z,1.70
2023-01-13T03:13:23.283Z,1.53
2023-01-13T03:16:00.887Z,2.00
2023-01-13T03:18:43.342Z,1.77
2023-01-13T03:21:22.490Z,1.70
2023-01-13T03:23:55.849Z,1.70
2023-01-13T03:26:32.668Z,1.83
2023-01-13T03:29:11.921Z,1.97
2023-01-13T03:31:49.221Z,2.10
2023-01-13T03:34:24.558Z,2.00
2023-01-13T03:36:58.240Z,1.73
2023-01-13T03:39:33.194Z,1.70
2023-01-13T03:42:06.551Z,1.90
2023-01-13T03:44:39.338Z,2.10
